Time;durP1;ratioP1;P1;durP2;ratioP2;P2;SDS_P1;SDS_P2;PMS_P1;PMS_P2;Temp;Humidity;BMP_temperature;BMP_pressure;BME280_temperature;BME280_humidity;BME280_pressure;Samples;Min_cycle;Max_cycle;Signal;HPM_P1;HPM_P2
2024/01/04 00:00:16;;;;;;;;;;;17.70;63.60;;;;;;5055943;28;42931;-90
2024/01/04 00:02:45;;;;;;;;;;;17.70;63.30;;;;;;5053587;28;43655;-90
2024/01/04 00:05:11;;;;;;;;;;;17.80;62.90;;;;;;5067266;28;43046;-89
2024/01/04 00:07:37;;;;;;;;;;;17.80;62.90;;;;;;5065435;28;43625;-88
2024/01/04 00:10:03;;;;;;;;;;;;;;;;;;5055985;28;42953;-88
2024/01/04 00:12:28;;;;;;;;;;;17.70;62.90;;;;;;5066494;28;43910;-87
2024/01/04 00:14:54;;;;;;;;;;;17.70;62.90;;;;;;5062189;28;43132;-87
2024/01/04 00:17:20;;;;;;;;;;;18.50;63.30;;;;;;5064071;28;43063;-87
2024/01/04 00:19:46;;;;;;;;;;;17.70;62.90;;;;;;5042404;28;43127;-88
2024/01/04 00:22:11;;;;;;;;;;;17.60;62.90;;;;;;5065692;28;43528;-90
2024/01/04 00:24:37;;;;;;;;;;;17.80;62.90;;;;;;5048944;28;43022;-88
2024/01/04 00:27:03;;;;;;;;;;;17.70;62.80;;;;;;5065272;28;44685;-88
2024/01/04 00:29:28;;;;;;;;;;;17.80;62.90;;;;;;5064317;28;42996;-91
2024/01/04 00:31:55;;;;;;;;;;;17.70;62.80;;;;;;5062346;28;43781;-90
2024/01/04 00:34:20;;;;;;;;;;;17.70;62.70;;;;;;5055838;28;42975;-90
2024/01/04 00:36:46;;;;;;;;;;;17.70;62.80;;;;;;5063573;28;42744;-88
2024/01/04 00:39:11;;;;;;;;;;;17.70;62.80;;;;;;5064326;28;42888;-90
2024/01/04 00:41:37;;;;;;;;;;;17.60;62.70;;;;;;5062247;28;43810;-90
2024/01/04 00:44:02;;;;;;;;;;;17.70;62.80;;;;;;5056237;28;42978;-91
2024/01/04 00:46:28;;;;;;;;;;;17.70;62.80;;;;;;5062995;28;43744;-89
2024/01/04 00:48:53;;;;;;;;;;;17.70;62.70;;;;;;5057365;28;42999;-90
2024/01/04 00:51:19;;;;;;;;;;;17.60;62.60;;;;;;5050635;28;44147;-90
2024/01/04 00:53:44;;;;;;;;;;;17.70;62.70;;;;;;5065938;28;43105;-91
2024/01/04 00:56:10;;;;;;;;;;;17.70;62.70;;;;;;5044474;28;43431;-90
2024/01/04 00:58:36;;;;;;;;;;;17.70;62.60;;;;;;5063269;28;42861;-88
2024/01/04 01:01:03;;;;;;;;;;;17.70;62.70;;;;;;5066985;28;42966;-91
2024/01/04 01:03:29;;;;;;;;;;;17.70;62.80;;;;;;5066598;28;42799;-91
2024/01/04 01:05:55;;;;;;;;;;;17.70;62.60;;;;;;5067064;28;43776;-91
2024/01/04 01:08:20;;;;;;;;;;;17.60;62.50;;;;;;5062419;28;42956;-92
2024/01/04 01:10:46;;;;;;;;;;;17.60;62.60;;;;;;5059573;28;43926;-92
2024/01/04 01:13:11;;;;;;;;;;;17.70;62.60;;;;;;5050591;28;42944;-91
2024/01/04 01:15:39;;;;;;;;;;;17.70;62.60;;;;;;5064710;28;42931;-91
2024/01/04 01:18:06;;;;;;;;;;;17.70;62.50;;;;;;5067684;28;43094;-90
2024/01/04 01:20:32;;;;;;;;;;;17.70;62.50;;;;;;5046464;28;45181;-91
2024/01/04 01:22:58;;;;;;;;;;;17.70;62.50;;;;;;5062970;28;43158;-89
2024/01/04 01:25:24;;;;;;;;;;;17.70;62.50;;;;;;5051714;28;43993;-89
2024/01/04 01:27:49;;;;;;;;;;;17.70;62.50;;;;;;5067880;28;43090;-90
2024/01/04 01:30:15;;;;;;;;;;;17.70;62.50;;;;;;5070997;28;43720;-87
2024/01/04 01:32:40;;;;;;;;;;;17.70;62.50;;;;;;5064937;28;43011;-88
2024/01/04 01:35:07;;;;;;;;;;;17.70;62.40;;;;;;5044629;28;45415;-87
2024/01/04 01:37:32;;;;;;;;;;;17.80;62.50;;;;;;5042433;28;43053;-88
2024/01/04 01:39:58;;;;;;;;;;;17.70;62.40;;;;;;5045059;28;44405;-88
2024/01/04 01:42:23;;;;;;;;;;;17.60;62.40;;;;;;5064052;28;42933;-87
2024/01/04 01:44:49;;;;;;;;;;;17.70;62.40;;;;;;5061586;28;43682;-87
2024/01/04 01:47:16;;;;;;;;;;;17.60;62.30;;;;;;5064106;28;44718;-88
2024/01/04 01:49:41;;;;;;;;;;;17.80;62.40;;;;;;5053189;28;43265;-87
2024/01/04 01:52:07;;;;;;;;;;;17.60;62.30;;;;;;5066005;28;43284;-90
2024/01/04 01:54:36;;;;;;;;;;;17.60;62.40;;;;;;5047752;28;44015;-93
2024/01/04 01:57:05;;;;;;;;;;;17.60;62.20;;;;;;5063698;28;42837;-92
2024/01/04 01:59:30;;;;;;;;;;;17.70;62.30;;;;;;5067623;28;43561;-93
2024/01/04 02:02:01;;;;;;;;;;;17.60;62.10;;;;;;5058526;28;43218;-91
2024/01/04 02:04:27;;;;;;;;;;;17.60;62.20;;;;;;5035925;28;44668;-90
2024/01/04 02:07:06;;;;;;;;;;;17.80;62.40;;;;;;5047507;28;42980;-93
2024/01/04 02:09:32;;;;;;;;;;;17.70;62.20;;;;;;5052870;28;43090;-91
2024/01/04 02:12:04;;;;;;;;;;;17.70;62.20;;;;;;5067576;28;43085;-91
2024/01/04 02:14:30;;;;;;;;;;;17.50;62.00;;;;;;5049049;28;44304;-91
2024/01/04 02:16:55;;;;;;;;;;;17.60;62.10;;;;;;5040762;28;43029;-89
2024/01/04 02:19:40;;;;;;;;;;;;;;;;;;;;;
2024/01/04 02:22:06;;;;;;;;;;;17.60;62.00;;;;;;5064178;28;69340;-90
2024/01/04 02:24:32;;;;;;;;;;;17.70;62.00;;;;;;5061279;28;42806;-95
2024/01/04 02:26:57;;;;;;;;;;;17.60;62.00;;;;;;5067716;28;43091;-87
2024/01/04 02:29:23;;;;;;;;;;;17.60;62.00;;;;;;5066198;28;43081;-87
2024/01/04 02:31:49;;;;;;;;;;;17.60;62.10;;;;;;5065994;28;43094;-88
2024/01/04 02:34:15;;;;;;;;;;;17.70;62.20;;;;;;5054587;28;44098;-87
2024/01/04 02:36:40;;;;;;;;;;;17.70;62.40;;;;;;5058562;28;42977;-88
2024/01/04 02:39:06;;;;;;;;;;;17.70;62.70;;;;;;5042516;28;43461;-88
2024/01/04 02:41:32;;;;;;;;;;;17.70;63.00;;;;;;5053394;28;43043;-86
2024/01/04 02:43:57;;;;;;;;;;;17.60;62.10;;;;;;5065199;28;43603;-89
2024/01/04 02:46:23;;;;;;;;;;;17.60;62.70;;;;;;5046906;28;42934;-91
2024/01/04 02:48:48;;;;;;;;;;;17.70;61.80;;;;;;5065463;28;42997;-91
2024/01/04 02:51:14;;;;;;;;;;;17.60;61.90;;;;;;5057098;28;43002;-91
2024/01/04 02:53:40;;;;;;;;;;;17.60;61.70;;;;;;5062978;28;43281;-87
2024/01/04 02:56:05;;;;;;;;;;;17.60;61.70;;;;;;5063577;28;43052;-87
2024/01/04 02:58:31;;;;;;;;;;;17.70;61.70;;;;;;5042565;28;44526;-87
2024/01/04 03:00:57;;;;;;;;;;;17.60;61.60;;;;;;5061580;28;43096;-87
2024/01/04 03:03:22;;;;;;;;;;;17.60;61.50;;;;;;5055467;28;42955;-87
2024/01/04 03:05:48;;;;;;;;;;;17.60;61.50;;;;;;5064073;28;42947;-87
2024/01/04 03:08:14;;;;;;;;;;;17.60;61.50;;;;;;5055457;28;42930;-87
2024/01/04 03:10:39;;;;;;;;;;;17.60;61.50;;;;;;5058875;28;43013;-87
2024/01/04 03:13:06;;;;;;;;;;;17.60;61.40;;;;;;5058251;28;43070;-87
2024/01/04 03:15:31;;;;;;;;;;;17.70;61.60;;;;;;5046348;28;43019;-86
2024/01/04 03:17:57;;;;;;;;;;;17.60;61.50;;;;;;5064073;28;42966;-86
2024/01/04 03:20:22;;;;;;;;;;;17.70;61.50;;;;;;5063482;28;43992;-89
2024/01/04 03:22:48;;;;;;;;;;;17.60;61.40;;;;;;5064162;28;42996;-87
2024/01/04 03:25:14;;;;;;;;;;;17.60;61.50;;;;;;5064437;28;42819;-90
2024/01/04 03:27:39;;;;;;;;;;;17.60;61.30;;;;;;5065022;28;43121;-93
2024/01/04 03:30:05;;;;;;;;;;;17.60;61.40;;;;;;5064072;28;42887;-94
2024/01/04 03:32:31;;;;;;;;;;;17.60;61.50;;;;;;5036928;28;43856;-92
2024/01/04 03:34:57;;;;;;;;;;;17.60;61.50;;;;;;5063515;28;43089;-91
2024/01/04 03:37:22;;;;;;;;;;;17.60;61.50;;;;;;5063916;28;43677;-90
2024/01/04 03:39:49;;;;;;;;;;;17.60;61.50;;;;;;5063669;28;43555;-90
2024/01/04 03:42:15;;;;;;;;;;;17.60;61.50;;;;;;5061162;28;43042;-86
2024/01/04 03:44:42;;;;;;;;;;;17.70;61.50;;;;;;5061923;28;42977;-85
2024/01/04 03:47:07;;;;;;;;;;;17.60;61.50;;;;;;5062690;28;44429;-86
2024/01/04 03:49:38;;;;;;;;;;;17.70;61.50;;;;;;5064352;28;42985;-85
2024/01/04 03:52:04;;;;;;;;;;;17.60;61.40;;;;;;5066533;28;45734;-85
2024/01/04 03:54:29;;;;;;;;;;;17.70;61.40;;;;;;5057147;28;43016;-86
2024/01/04 03:57:04;;;;;;;;;;;17.60;61.40;;;;;;5045825;28;44572;-87
2024/01/04 03:59:30;;;;;;;;;;;17.60;61.30;;;;;;5060483;28;42945;-87
2024/01/04 04:01:56;;;;;;;;;;;15.10;59.90;;;;;;5062732;28;43624;-86
2024/01/04 04:04:22;;;;;;;;;;;17.60;61.30;;;;;;5063853;28;42996;-86
2024/01/04 04:06:47;;;;;;;;;;;17.60;61.30;;;;;;5061458;28;43018;-85
2024/01/04 04:09:13;;;;;;;;;;;17.60;61.30;;;;;;5051202;28;43111;-87
2024/01/04 04:11:38;;;;;;;;;;;17.60;61.30;;;;;;5064319;28;43382;-86
2024/01/04 04:14:04;;;;;;;;;;;18.10;61.60;;;;;;5049691;28;43115;-86
2024/01/04 04:16:29;;;;;;;;;;;17.70;61.30;;;;;;5037931;28;44577;-86
2024/01/04 04:18:55;;;;;;;;;;;17.70;61.30;;;;;;5045411;28;42999;-92
2024/01/04 04:21:21;;;;;;;;;;;17.60;61.30;;;;;;5063674;28;42912;-91
2024/01/04 04:23:49;;;;;;;;;;;17.60;61.30;;;;;;5064048;28;43045;-88
2024/01/04 04:26:21;;;;;;;;;;;17.70;61.60;;;;;;5045635;28;45138;-89
2024/01/04 04:28:47;;;;;;;;;;;17.70;61.60;;;;;;5058054;28;43027;-91
2024/01/04 04:31:13;;;;;;;;;;;17.70;61.50;;;;;;5062387;28;42930;-95
2024/01/04 04:33:39;;;;;;;;;;;17.70;61.60;;;;;;5063110;28;43944;-90
2024/01/04 04:36:04;;;;;;;;;;;17.50;61.60;;;;;;5061557;28;43895;-90
2024/01/04 04:38:30;;;;;;;;;;;17.60;61.50;;;;;;5061815;28;43176;-92
2024/01/04 04:40:55;;;;;;;;;;;17.60;61.50;;;;;;5061347;28;43172;-91
2024/01/04 04:43:21;;;;;;;;;;;17.60;61.50;;;;;;5062241;28;42889;-88
2024/01/04 04:45:46;;;;;;;;;;;17.80;61.80;;;;;;5060754;28;42950;-87
2024/01/04 04:48:12;;;;;;;;;;;17.70;61.50;;;;;;5063140;28;42895;-90
2024/01/04 04:50:37;;;;;;;;;;;17.70;61.30;;;;;;5063072;28;42979;-88
2024/01/04 04:53:03;;;;;;;;;;;17.70;61.40;;;;;;5062704;28;42920;-91
2024/01/04 04:55:28;;;;;;;;;;;17.70;61.50;;;;;;5062745;28;43105;-91
2024/01/04 04:57:54;;;;;;;;;;;17.60;61.30;;;;;;5061737;28;43042;-91
2024/01/04 05:00:20;;;;;;;;;;;17.60;61.20;;;;;;5063062;28;42923;-92
2024/01/04 05:02:45;;;;;;;;;;;17.70;61.30;;;;;;5059634;28;43091;-88
2024/01/04 05:05:11;;;;;;;;;;;17.70;61.30;;;;;;5055189;28;44343;-91
2024/01/04 05:07:36;;;;;;;;;;;17.60;61.30;;;;;;5055873;28;43334;-91
2024/01/04 05:10:02;;;;;;;;;;;17.60;61.30;;;;;;5053543;28;43677;-91
2024/01/04 05:12:31;;;;;;;;;;;17.50;61.30;;;;;;5051889;28;42985;-88
2024/01/04 05:14:58;;;;;;;;;;;17.40;61.00;;;;;;5057440;28;43645;-89
2024/01/04 05:17:23;;;;;;;;;;;17.70;61.30;;;;;;5043139;28;43142;-91
2024/01/04 05:19:49;;;;;;;;;;;17.60;61.40;;;;;;5063451;28;43074;-91
2024/01/04 05:22:15;;;;;;;;;;;17.60;61.40;;;;;;5057224;28;42979;-86
2024/01/04 05:24:41;;;;;;;;;;;17.60;61.40;;;;;;5063146;28;43653;-86
2024/01/04 05:27:06;;;;;;;;;;;17.60;61.40;;;;;;5060719;28;43300;-87
2024/01/04 05:29:32;;;;;;;;;;;17.70;61.50;;;;;;5061079;28;44854;-87
2024/01/04 05:31:57;;;;;;;;;;;17.50;61.10;;;;;;5060428;28;42964;-85
2024/01/04 05:34:23;;;;;;;;;;;17.70;61.30;;;;;;5061094;28;42908;-86
2024/01/04 05:36:48;;;;;;;;;;;17.60;61.30;;;;;;5049565;28;42951;-86
2024/01/04 05:39:14;;;;;;;;;;;17.70;60.60;;;;;;5060468;28;42952;-87
2024/01/04 05:41:39;;;;;;;;;;;17.70;60.60;;;;;;5059047;28;42943;-88
2024/01/04 05:44:06;;;;;;;;;;;17.60;60.50;;;;;;5064094;28;43777;-87
2024/01/04 05:46:32;;;;;;;;;;;17.70;60.40;;;;;;5058900;28;42877;-89
2024/01/04 05:48:58;;;;;;;;;;;17.60;60.30;;;;;;5063774;28;45032;-89
2024/01/04 05:51:23;;;;;;;;;;;17.50;60.30;;;;;;5065267;28;43796;-89
2024/01/04 05:53:49;;;;;;;;;;;17.50;60.30;;;;;;5061970;28;43100;-87
2024/01/04 05:56:15;;;;;;;;;;;17.60;60.40;;;;;;5061530;28;43128;-88
2024/01/04 05:58:40;;;;;;;;;;;17.50;60.40;;;;;;5046541;28;44826;-90
2024/01/04 06:01:06;;;;;;;;;;;17.50;60.30;;;;;;5057509;28;42982;-85
2024/01/04 06:03:32;;;;;;;;;;;17.60;60.40;;;;;;5063011;28;42958;-90
2024/01/04 06:05:57;;;;;;;;;;;17.50;60.30;;;;;;5062956;28;42967;-89
2024/01/04 06:08:23;;;;;;;;;;;17.70;60.50;;;;;;5047452;28;44010;-90
2024/01/04 06:10:48;;;;;;;;;;;17.50;60.40;;;;;;5059821;28;43101;-85
2024/01/04 06:13:14;;;;;;;;;;;17.70;60.50;;;;;;5062052;28;42902;-90
2024/01/04 06:15:39;;;;;;;;;;;17.60;60.40;;;;;;5067436;28;42871;-87
2024/01/04 06:18:05;;;;;;;;;;;17.50;60.50;;;;;;5063730;28;43731;-86
2024/01/04 06:20:30;;;;;;;;;;;17.60;60.90;;;;;;5038930;28;42971;-88
2024/01/04 06:22:56;;;;;;;;;;;17.60;61.30;;;;;;5035658;28;44548;-90
2024/01/04 06:25:21;;;;;;;;;;;17.60;60.90;;;;;;5048578;28;43387;-91
2024/01/04 06:27:47;;;;;;;;;;;17.50;60.80;;;;;;5063805;28;42884;-89
2024/01/04 06:30:13;;;;;;;;;;;17.60;61.10;;;;;;5064466;28;42999;-91
2024/01/04 06:32:38;;;;;;;;;;;17.60;61.00;;;;;;5058503;28;43838;-89
2024/01/04 06:35:04;;;;;;;;;;;17.60;61.10;;;;;;5062906;28;42988;-94
2024/01/04 06:37:29;;;;;;;;;;;17.70;60.90;;;;;;5062049;28;43021;-91
2024/01/04 06:39:55;;;;;;;;;;;17.60;60.90;;;;;;5060958;28;43013;-86
2024/01/04 06:42:20;;;;;;;;;;;17.60;60.80;;;;;;5045654;28;45501;-88
2024/01/04 06:44:47;;;;;;;;;;;17.40;60.60;;;;;;5039971;28;43140;-86
2024/01/04 06:47:14;;;;;;;;;;;17.50;60.50;;;;;;5045839;28;44782;-85
2024/01/04 06:49:42;;;;;;;;;;;17.60;60.40;;;;;;5055466;28;42933;-86
2024/01/04 06:52:08;;;;;;;;;;;17.60;60.50;;;;;;5045662;28;43635;-86
2024/01/04 06:54:33;;;;;;;;;;;17.50;60.20;;;;;;5045801;28;42998;-87
2024/01/04 06:56:59;;;;;;;;;;;17.50;60.40;;;;;;5065220;28;43023;-84
2024/01/04 06:59:26;;;;;;;;;;;17.60;60.70;;;;;;5053844;28;43551;-84
2024/01/04 07:01:52;;;;;;;;;;;17.50;60.60;;;;;;5037091;28;43733;-85
2024/01/04 07:04:17;;;;;;;;;;;17.60;60.60;;;;;;5034656;28;43153;-85
2024/01/04 07:06:46;;;;;;;;;;;17.60;60.80;;;;;;5060151;28;43236;-88
2024/01/04 07:09:12;;;;;;;;;;;17.70;60.60;;;;;;5052123;28;44214;-85
2024/01/04 07:11:37;;;;;;;;;;;17.60;60.80;;;;;;5055473;28;42963;-85
2024/01/04 07:14:03;;;;;;;;;;;17.30;60.50;;;;;;5063688;28;44058;-85
2024/01/04 07:16:30;;;;;;;;;;;17.50;60.50;;;;;;5044463;28;63570;-87
2024/01/04 07:18:56;;;;;;;;;;;17.60;60.70;;;;;;5045740;28;43147;-88
2024/01/04 07:21:22;;;;;;;;;;;17.60;60.70;;;;;;5045726;28;43663;-89
2024/01/04 07:23:47;;;;;;;;;;;17.70;61.10;;;;;;5055296;28;43128;-88
2024/01/04 07:26:13;;;;;;;;;;;17.60;60.90;;;;;;5061621;28;45814;-87
2024/01/04 07:28:40;;;;;;;;;;;17.60;60.80;;;;;;5060316;28;42970;-87
2024/01/04 07:31:05;;;;;;;;;;;17.60;60.60;;;;;;5053672;28;43011;-85
2024/01/04 07:33:31;;;;;;;;;;;17.70;60.60;;;;;;5063482;28;43076;-85
2024/01/04 07:35:56;;;;;;;;;;;17.70;60.50;;;;;;5062010;28;43881;-86
2024/01/04 07:38:22;;;;;;;;;;;17.60;60.70;;;;;;5062211;28;43438;-84
2024/01/04 07:40:47;;;;;;;;;;;17.60;60.70;;;;;;5060723;28;43404;-86
2024/01/04 07:43:13;;;;;;;;;;;17.60;60.80;;;;;;5054026;28;43092;-86
2024/01/04 07:45:38;;;;;;;;;;;17.60;60.80;;;;;;5059002;28;43432;-86
2024/01/04 07:48:04;;;;;;;;;;;17.70;60.80;;;;;;5061995;28;42989;-86
2024/01/04 07:50:30;;;;;;;;;;;17.60;60.80;;;;;;5054420;28;44107;-85
2024/01/04 07:52:55;;;;;;;;;;;17.60;61.00;;;;;;5044343;28;43139;-86
2024/01/04 07:55:21;;;;;;;;;;;17.60;60.70;;;;;;5061016;28;45218;-86
2024/01/04 07:57:46;;;;;;;;;;;17.50;60.90;;;;;;5063103;28;43087;-86
2024/01/04 08:00:12;;;;;;;;;;;17.60;60.40;;;;;;5043131;28;44342;-86
2024/01/04 08:02:39;;;;;;;;;;;;;;;;;;5039981;28;43204;-85
2024/01/04 08:05:05;;;;;;;;;;;17.50;60.40;;;;;;5042963;28;44683;-86
2024/01/04 08:07:30;;;;;;;;;;;17.60;60.40;;;;;;5059148;28;43074;-87
2024/01/04 08:09:56;;;;;;;;;;;17.60;60.40;;;;;;5036439;28;44544;-86
2024/01/04 08:12:21;;;;;;;;;;;17.40;60.30;;;;;;5044523;28;43043;-88
2024/01/04 08:14:47;;;;;;;;;;;17.60;60.50;;;;;;5060330;28;44026;-89
2024/01/04 08:17:12;;;;;;;;;;;17.50;60.40;;;;;;5053935;28;43095;-86
2024/01/04 08:19:42;;;;;;;;;;;17.60;60.40;;;;;;5063875;28;43275;-90
2024/01/04 08:22:17;;;;;;;;;;;17.50;60.30;;;;;;5043704;28;43455;-91
2024/01/04 08:24:43;;;;;;;;;;;;;;;;;;5061991;28;43896;-90
2024/01/04 08:27:08;;;;;;;;;;;17.50;60.60;;;;;;5065012;28;42388;-94
2024/01/04 08:29:35;;;;;;;;;;;17.50;60.70;;;;;;5076189;28;42884;-88
2024/01/04 08:32:00;;;;;;;;;;;17.50;60.80;;;;;;5079665;28;42309;-94
2024/01/04 08:34:27;;;;;;;;;;;17.50;60.80;;;;;;5061981;28;43793;-90
2024/01/04 08:36:53;;;;;;;;;;;;;;;;;;5035212;28;42663;-89
2024/01/04 08:39:18;;;;;;;;;;;17.50;61.00;;;;;;5051308;28;44656;-93
2024/01/04 08:41:44;;;;;;;;;;;17.70;61.30;;;;;;5063805;28;43296;-93
2024/01/04 08:44:09;;;;;;;;;;;17.60;56.00;;;;;;5042227;28;44574;-94
2024/01/04 08:46:37;;;;;;;;;;;17.30;50.50;;;;;;5066159;28;42983;-93
2024/01/04 08:49:04;;;;;;;;;;;17.10;48.80;;;;;;5070128;28;42513;-95
2024/01/04 08:51:29;;;;;;;;;;;15.00;47.50;;;;;;5059848;28;42888;-94
2024/01/04 08:53:55;;;;;;;;;;;16.80;48.50;;;;;;5063842;28;43655;-92
2024/01/04 08:56:20;;;;;;;;;;;16.60;48.20;;;;;;5064217;28;42829;-94
2024/01/04 08:58:47;;;;;;;;;;;16.70;47.90;;;;;;5072273;28;42942;-90
2024/01/04 09:01:13;;;;;;;;;;;16.50;48.00;;;;;;5047362;28;43325;-93
2024/01/04 09:03:39;;;;;;;;;;;16.40;48.10;;;;;;5062042;28;43285;-83
2024/01/04 09:06:06;;;;;;;;;;;16.40;48.50;;;;;;5061147;28;43235;-84
2024/01/04 09:08:35;;;;;;;;;;;16.30;50.10;;;;;;5051046;28;43604;-86
2024/01/04 09:11:18;;;;;;;;;;;16.60;50.20;;;;;;5051986;28;42960;-91
2024/01/04 09:13:45;;;;;;;;;;;16.30;50.30;;;;;;5043849;28;45230;-92
2024/01/04 09:16:14;;;;;;;;;;;;;;;;;;5048258;28;43014;-89
2024/01/04 09:18:40;;;;;;;;;;;16.40;49.50;;;;;;5064345;28;43048;-90
2024/01/04 09:21:05;;;;;;;;;;;16.30;48.60;;;;;;5066914;28;42974;-92
2024/01/04 09:23:30;;;;;;;;;;;16.10;49.00;;;;;;5066384;28;43525;-92
2024/01/04 09:25:56;;;;;;;;;;;16.20;48.40;;;;;;5067758;28;43019;-89
2024/01/04 09:28:24;;;;;;;;;;;16.00;47.80;;;;;;5047295;28;44921;-92
2024/01/04 09:30:50;;;;;;;;;;;16.10;47.90;;;;;;5049305;28;42943;-81
2024/01/04 09:33:16;;;;;;;;;;;16.60;49.60;;;;;;5066323;28;43218;-80
2024/01/04 09:35:41;;;;;;;;;;;16.00;50.70;;;;;;5066989;28;42966;-81
2024/01/04 09:38:07;;;;;;;;;;;16.00;51.00;;;;;;5057857;28;43725;-79
2024/01/04 09:40:33;;;;;;;;;;;16.20;52.30;;;;;;5064581;28;42934;-81
2024/01/04 09:43:00;;;;;;;;;;;16.30;52.60;;;;;;5061851;28;43648;-80
2024/01/04 09:45:27;;;;;;;;;;;16.40;52.80;;;;;;5066466;28;42891;-80
2024/01/04 09:47:56;;;;;;;;;;;16.50;53.00;;;;;;5061291;28;43706;-81
2024/01/04 09:50:21;;;;;;;;;;;16.60;52.60;;;;;;5065011;28;43067;-81
2024/01/04 09:52:48;;;;;;;;;;;16.70;53.30;;;;;;5066001;28;43508;-81
2024/01/04 09:55:14;;;;;;;;;;;16.80;53.00;;;;;;5045033;28;42864;-81
2024/01/04 09:57:39;;;;;;;;;;;16.80;53.50;;;;;;5064687;28;43066;-81
2024/01/04 10:00:05;;;;;;;;;;;16.80;53.70;;;;;;5066786;28;43044;-80
2024/01/04 10:02:32;;;;;;;;;;;16.80;53.20;;;;;;5048935;28;43944;-81
2024/01/04 10:04:59;;;;;;;;;;;16.90;53.90;;;;;;5063080;28;43034;-81
2024/01/04 10:07:27;;;;;;;;;;;16.90;53.60;;;;;;5059608;28;44390;-85
2024/01/04 10:09:55;;;;;;;;;;;16.80;53.70;;;;;;5043891;28;43744;-82
2024/01/04 10:12:21;;;;;;;;;;;16.90;54.30;;;;;;5057167;28;43010;-84
2024/01/04 10:14:48;;;;;;;;;;;17.00;54.10;;;;;;5043632;28;42892;-83
2024/01/04 10:17:13;;;;;;;;;;;17.00;53.60;;;;;;5063914;28;43436;-80
2024/01/04 10:19:40;;;;;;;;;;;17.00;54.20;;;;;;5066362;28;43033;-84
2024/01/04 10:22:06;;;;;;;;;;;17.00;54.40;;;;;;5065835;28;43320;-82
2024/01/04 10:24:37;;;;;;;;;;;17.00;54.00;;;;;;5066302;28;42986;-83
2024/01/04 10:27:03;;;;;;;;;;;17.00;54.50;;;;;;5060348;28;43050;-84
2024/01/04 10:29:29;;;;;;;;;;;17.10;54.70;;;;;;5063257;28;43136;-84
2024/01/04 10:32:01;;;;;;;;;;;17.10;54.70;;;;;;5043560;28;43605;-83
2024/01/04 10:34:27;;;;;;;;;;;17.10;54.20;;;;;;5059240;28;42955;-83
2024/01/04 10:36:54;;;;;;;;;;;17.10;54.50;;;;;;5033014;28;44340;-83
2024/01/04 10:39:20;;;;;;;;;;;17.10;54.30;;;;;;5054444;28;42801;-83
2024/01/04 10:41:56;;;;;;;;;;;17.20;54.80;;;;;;5064803;28;42895;-83
2024/01/04 10:44:21;;;;;;;;;;;17.10;54.30;;;;;;5065178;28;43225;-83
2024/01/04 10:46:52;;;;;;;;;;;17.10;55.10;;;;;;5065279;28;43576;-83
2024/01/04 10:49:19;;;;;;;;;;;17.10;55.10;;;;;;5064620;28;42796;-83
2024/01/04 10:51:46;;;;;;;;;;;17.20;55.10;;;;;;5059425;28;43199;-83
2024/01/04 10:54:12;;;;;;;;;;;17.10;54.20;;;;;;5065333;28;42947;-84
2024/01/04 10:56:38;;;;;;;;;;;17.30;54.20;;;;;;5064369;28;43011;-80
2024/01/04 10:59:04;;;;;;;;;;;17.10;53.90;;;;;;5067466;28;43035;-84
2024/01/04 11:01:30;;;;;;;;;;;17.10;54.40;;;;;;5070154;28;43968;-80
2024/01/04 11:03:56;;;;;;;;;;;17.30;54.50;;;;;;5040047;28;43094;-83
2024/01/04 11:06:23;;;;;;;;;;;17.20;52.70;;;;;;5061966;28;42958;-83
2024/01/04 11:08:49;;;;;;;;;;;17.10;51.80;;;;;;5050767;28;42922;-82
2024/01/04 11:11:16;;;;;;;;;;;17.20;51.50;;;;;;5055041;28;43089;-78
2024/01/04 11:13:42;;;;;;;;;;;17.10;52.20;;;;;;5049306;28;43085;-79
2024/01/04 11:16:17;;;;;;;;;;;17.10;51.90;;;;;;5055622;28;43390;-79
2024/01/04 11:19:04;;;;;;;;;;;17.10;52.40;;;;;;5046339;28;43011;-88
2024/01/04 11:21:48;;;;;;;;;;;17.20;54.80;;;;;;5053009;28;43820;-81
2024/01/04 11:24:22;;;;;;;;;;;17.10;55.20;;;;;;5063876;28;43088;-81
2024/01/04 11:26:52;;;;;;;;;;;17.20;55.80;;;;;;5060951;28;43042;-81
2024/01/04 11:29:19;;;;;;;;;;;17.20;55.50;;;;;;5050209;28;43232;-79
2024/01/04 11:31:45;;;;;;;;;;;17.30;55.90;;;;;;5059925;28;43088;-81
2024/01/04 11:34:12;;;;;;;;;;;17.30;56.10;;;;;;5059766;28;43245;-81
2024/01/04 11:36:39;;;;;;;;;;;17.30;56.00;;;;;;5049134;28;43073;-81
2024/01/04 11:39:05;;;;;;;;;;;17.30;56.00;;;;;;5052200;28;42997;-79
2024/01/04 11:41:31;;;;;;;;;;;17.30;56.10;;;;;;5045707;28;43749;-81
2024/01/04 11:43:57;;;;;;;;;;;17.30;56.50;;;;;;5053407;28;42873;-79
2024/01/04 11:46:24;;;;;;;;;;;17.30;55.50;;;;;;5044199;28;43292;-80
2024/01/04 11:48:53;;;;;;;;;;;17.30;55.60;;;;;;5042500;28;42955;-81
2024/01/04 11:51:30;;;;;;;;;;;17.20;55.50;;;;;;5063204;28;43096;-79
2024/01/04 11:53:57;;;;;;;;;;;17.40;55.70;;;;;;5064324;28;42979;-79
2024/01/04 11:56:24;;;;;;;;;;;17.40;55.70;;;;;;5057191;28;43021;-81
2024/01/04 11:58:49;;;;;;;;;;;17.30;55.70;;;;;;5062497;28;43234;-80
2024/01/04 12:01:24;;;;;;;;;;;17.40;55.80;;;;;;5050645;28;43040;-83
2024/01/04 12:03:50;;;;;;;;;;;17.40;55.90;;;;;;5036367;28;43172;-85
2024/01/04 12:06:17;;;;;;;;;;;17.30;56.50;;;;;;5048995;28;43757;-78
2024/01/04 12:08:42;;;;;;;;;;;17.30;55.80;;;;;;5052435;28;43071;-84
2024/01/04 12:11:09;;;;;;;;;;;17.30;55.80;;;;;;5045314;28;43138;-85
2024/01/04 12:13:34;;;;;;;;;;;17.30;56.30;;;;;;5063383;28;43084;-80
2024/01/04 12:16:03;;;;;;;;;;;17.40;55.90;;;;;;5044598;28;43058;-80
2024/01/04 12:18:31;;;;;;;;;;;17.30;56.30;;;;;;5040844;28;43366;-79
2024/01/04 12:20:59;;;;;;;;;;;17.30;55.90;;;;;;5056962;28;43401;-79
2024/01/04 12:23:25;;;;;;;;;;;17.30;56.50;;;;;;5052804;28;43106;-81
2024/01/04 12:25:51;;;;;;;;;;;17.30;56.50;;;;;;5058483;28;44006;-84
2024/01/04 12:28:17;;;;;;;;;;;17.40;55.90;;;;;;5052281;28;43163;-83
2024/01/04 12:30:43;;;;;;;;;;;17.40;56.60;;;;;;5038989;28;44170;-80
2024/01/04 12:33:09;;;;;;;;;;;17.30;56.30;;;;;;5043660;28;43950;-77
2024/01/04 12:35:34;;;;;;;;;;;17.30;56.20;;;;;;5052025;28;44066;-80
2024/01/04 12:38:00;;;;;;;;;;;17.40;56.70;;;;;;5054569;28;43157;-80
2024/01/04 12:40:27;;;;;;;;;;;17.40;56.10;;;;;;5060704;28;43538;-79
2024/01/04 12:42:52;;;;;;;;;;;17.40;56.80;;;;;;5062123;28;42957;-80
2024/01/04 12:45:18;;;;;;;;;;;17.40;56.10;;;;;;5062906;28;44247;-79
2024/01/04 12:47:43;;;;;;;;;;;17.40;56.60;;;;;;5041269;28;43363;-78
2024/01/04 12:50:12;;;;;;;;;;;17.40;56.70;;;;;;5060484;28;43524;-79
2024/01/04 12:52:38;;;;;;;;;;;17.40;55.80;;;;;;5064371;28;42990;-81
2024/01/04 12:55:04;;;;;;;;;;;17.30;56.10;;;;;;5068393;28;44741;-80
2024/01/04 12:57:30;;;;;;;;;;;17.60;56.70;;;;;;5066651;28;43146;-79
2024/01/04 12:59:55;;;;;;;;;;;17.40;56.70;;;;;;5066290;28;42938;-80
2024/01/04 13:02:21;;;;;;;;;;;17.40;56.20;;;;;;5064719;28;43068;-80
2024/01/04 13:04:47;;;;;;;;;;;17.40;56.20;;;;;;5062378;28;43119;-80
2024/01/04 13:07:12;;;;;;;;;;;17.40;56.20;;;;;;5042197;28;42900;-80
2024/01/04 13:09:38;;;;;;;;;;;17.60;56.40;;;;;;5053921;28;43047;-80
2024/01/04 13:12:04;;;;;;;;;;;17.40;56.30;;;;;;5058546;28;43024;-83
2024/01/04 13:14:29;;;;;;;;;;;17.50;56.40;;;;;;5042062;28;45558;-77
2024/01/04 13:16:55;;;;;;;;;;;17.60;56.70;;;;;;5059596;28;43272;-77
2024/01/04 13:19:21;;;;;;;;;;;17.50;56.40;;;;;;5054729;28;43328;-76
2024/01/04 13:21:46;;;;;;;;;;;17.40;56.40;;;;;;5062178;28;43212;-76
2024/01/04 13:24:12;;;;;;;;;;;17.50;56.60;;;;;;5067117;28;43683;-76
2024/01/04 13:26:39;;;;;;;;;;;17.60;56.80;;;;;;5050473;28;43272;-77
2024/01/04 13:29:06;;;;;;;;;;;17.50;56.60;;;;;;5060801;28;43810;-77
2024/01/04 13:31:32;;;;;;;;;;;17.60;56.60;;;;;;5063454;28;43026;-76
2024/01/04 13:33:58;;;;;;;;;;;17.40;56.70;;;;;;5062814;28;43036;-77
2024/01/04 13:36:24;;;;;;;;;;;17.60;56.80;;;;;;5064336;28;43469;-76
2024/01/04 13:38:49;;;;;;;;;;;17.50;56.60;;;;;;5058060;28;43890;-77
2024/01/04 13:41:15;;;;;;;;;;;17.50;56.70;;;;;;5065189;28;43090;-76
2024/01/04 13:43:40;;;;;;;;;;;17.70;56.80;;;;;;5063531;28;43087;-78
2024/01/04 13:46:06;;;;;;;;;;;17.60;56.80;;;;;;5062672;28;43082;-73
2024/01/04 13:48:32;;;;;;;;;;;17.70;56.90;;;;;;5053344;28;43611;-76
2024/01/04 13:50:58;;;;;;;;;;;17.60;56.80;;;;;;5050046;28;43230;-75
2024/01/04 13:53:24;;;;;;;;;;;17.60;56.90;;;;;;5057780;28;43232;-76
2024/01/04 13:55:49;;;;;;;;;;;17.60;56.90;;;;;;5065307;28;43002;-77
2024/01/04 13:58:16;;;;;;;;;;;17.60;57.00;;;;;;5059690;28;43853;-77
2024/01/04 14:00:41;;;;;;;;;;;17.60;57.00;;;;;;5046915;28;43038;-77
2024/01/04 14:03:07;;;;;;;;;;;17.60;57.60;;;;;;5062206;28;43415;-78
2024/01/04 14:05:33;;;;;;;;;;;17.60;57.70;;;;;;5065640;28;43000;-76
2024/01/04 14:07:59;;;;;;;;;;;17.60;57.30;;;;;;5055137;28;44251;-75
2024/01/04 14:10:25;;;;;;;;;;;17.70;57.50;;;;;;5042652;28;43027;-74
2024/01/04 14:12:51;;;;;;;;;;;17.70;57.60;;;;;;5063383;28;43687;-74